sensor_id;sensor_type;location;lat;lon;timestamp;temperature;humidity
18797;DHT22;9526;52.612;13.300;2024-02-23T00:01:07;10.80;99.90
18797;DHT22;9526;52.612;13.300;2024-02-23T00:03:34;10.80;99.90
18797;DHT22;9526;52.612;13.300;2024-02-23T00:06:00;10.70;99.90
18797;DHT22;9526;52.612;13.300;2024-02-23T00:08:24;10.80;99.90
18797;DHT22;9526;52.612;13.300;2024-02-23T00:10:48;10.80;99.90
18797;DHT22;9526;52.612;13.300;2024-02-23T00:13:12;10.80;99.90
18797;DHT22;9526;52.612;13.300;2024-02-23T00:15:35;10.80;99.90
18797;DHT22;9526;52.612;13.300;2024-02-23T00:17:59;10.80;99.90
18797;DHT22;9526;52.612;13.300;2024-02-23T00:20:25;10.80;99.90
18797;DHT22;9526;52.612;13.300;2024-02-23T00:22:50;10.90;99.90
18797;DHT22;9526;52.612;13.300;2024-02-23T00:25:14;10.90;99.90
18797;DHT22;9526;52.612;13.300;2024-02-23T00:27:38;10.90;99.90
18797;DHT22;9526;52.612;13.300;2024-02-23T00:30:04;10.90;99.90
18797;DHT22;9526;52.612;13.300;2024-02-23T00:32:29;10.90;99.90
18797;DHT22;9526;52.612;13.300;2024-02-23T00:34:53;10.90;99.90
18797;DHT22;9526;52.612;13.300;2024-02-23T00:37:17;10.90;99.90
18797;DHT22;9526;52.612;13.300;2024-02-23T00:39:42;10.90;99.90
18797;DHT22;9526;52.612;13.300;2024-02-23T00:42:06;10.90;99.90
18797;DHT22;9526;52.612;13.300;2024-02-23T00:44:30;10.90;99.90
18797;DHT22;9526;52.612;13.300;2024-02-23T00:46:53;10.80;99.90
18797;DHT22;9526;52.612;13.300;2024-02-23T00:49:19;10.80;99.90
18797;DHT22;9526;52.612;13.300;2024-02-23T00:51:43;10.80;99.90
18797;DHT22;9526;52.612;13.300;2024-02-23T00:54:07;10.90;99.90
18797;DHT22;9526;52.612;13.300;2024-02-23T00:56:32;10.90;99.90
18797;DHT22;9526;52.612;13.300;2024-02-23T00:59:11;10.80;99.90
18797;DHT22;9526;52.612;13.300;2024-02-23T01:01:35;10.90;99.90
18797;DHT22;9526;52.612;13.300;2024-02-23T01:03:59;10.80;99.90
18797;DHT22;9526;52.612;13.300;2024-02-23T01:06:23;10.80;99.90
18797;DHT22;9526;52.612;13.300;2024-02-23T01:08:49;10.80;99.90
18797;DHT22;9526;52.612;13.300;2024-02-23T01:11:13;10.80;99.90
18797;DHT22;9526;52.612;13.300;2024-02-23T01:13:38;10.80;99.90
18797;DHT22;9526;52.612;13.300;2024-02-23T01:16:02;10.90;99.90
18797;DHT22;9526;52.612;13.300;2024-02-23T01:18:26;10.90;99.90
18797;DHT22;9526;52.612;13.300;2024-02-23T01:20:50;10.90;99.90
18797;DHT22;9526;52.612;13.300;2024-02-23T01:23:14;10.90;99.90
18797;DHT22;9526;52.612;13.300;2024-02-23T01:25:37;11.00;99.90
18797;DHT22;9526;52.612;13.300;2024-02-23T01:28:01;11.00;99.90
18797;DHT22;9526;52.612;13.300;2024-02-23T01:30:27;11.00;99.90
18797;DHT22;9526;52.612;13.300;2024-02-23T01:32:50;11.00;99.90
18797;DHT22;9526;52.612;13.300;2024-02-23T01:35:14;11.00;99.90
18797;DHT22;9526;52.612;13.300;2024-02-23T01:37:38;11.00;99.90
18797;DHT22;9526;52.612;13.300;2024-02-23T01:40:01;11.00;99.90
18797;DHT22;9526;52.612;13.300;2024-02-23T01:42:24;11.10;99.90
18797;DHT22;9526;52.612;13.300;2024-02-23T01:44:48;11.10;99.90
18797;DHT22;9526;52.612;13.300;2024-02-23T01:47:13;11.10;99.90
18797;DHT22;9526;52.612;13.300;2024-02-23T01:49:38;11.00;99.90
18797;DHT22;9526;52.612;13.300;2024-02-23T01:52:03;11.10;99.90
18797;DHT22;9526;52.612;13.300;2024-02-23T01:54:28;11.10;99.90
18797;DHT22;9526;52.612;13.300;2024-02-23T01:56:53;11.20;99.90
18797;DHT22;9526;52.612;13.300;2024-02-23T01:59:18;11.30;99.90
18797;DHT22;9526;52.612;13.300;2024-02-23T02:01:43;11.30;99.90
18797;DHT22;9526;52.612;13.300;2024-02-23T02:04:08;11.30;99.90
18797;DHT22;9526;52.612;13.300;2024-02-23T02:06:32;11.30;99.90
18797;DHT22;9526;52.612;13.300;2024-02-23T02:08:56;11.40;99.90
18797;DHT22;9526;52.612;13.300;2024-02-23T02:11:19;11.40;99.90
18797;DHT22;9526;52.612;13.300;2024-02-23T02:13:43;11.40;99.90
18797;DHT22;9526;52.612;13.300;2024-02-23T02:16:07;11.30;99.90
18797;DHT22;9526;52.612;13.300;2024-02-23T02:18:32;11.30;99.90
18797;DHT22;9526;52.612;13.300;2024-02-23T02:20:57;11.30;99.90
18797;DHT22;9526;52.612;13.300;2024-02-23T02:23:21;11.30;99.90
18797;DHT22;9526;52.612;13.300;2024-02-23T02:25:45;11.30;99.90
18797;DHT22;9526;52.612;13.300;2024-02-23T02:28:08;11.20;99.90
18797;DHT22;9526;52.612;13.300;2024-02-23T02:30:32;11.20;99.90
18797;DHT22;9526;52.612;13.300;2024-02-23T02:32:56;11.20;99.90
18797;DHT22;9526;52.612;13.300;2024-02-23T02:35:20;11.10;99.90
18797;DHT22;9526;52.612;13.300;2024-02-23T02:37:45;11.00;99.90
18797;DHT22;9526;52.612;13.300;2024-02-23T02:40:10;11.00;99.90
18797;DHT22;9526;52.612;13.300;2024-02-23T02:42:34;11.00;99.90
18797;DHT22;9526;52.612;13.300;2024-02-23T02:44:58;10.80;99.90
18797;DHT22;9526;52.612;13.300;2024-02-23T02:47:22;10.80;99.90
18797;DHT22;9526;52.612;13.300;2024-02-23T02:49:46;10.70;99.90
18797;DHT22;9526;52.612;13.300;2024-02-23T02:52:10;10.70;99.90
18797;DHT22;9526;52.612;13.300;2024-02-23T02:54:36;10.60;99.90
18797;DHT22;9526;52.612;13.300;2024-02-23T02:57:00;10.50;99.90
18797;DHT22;9526;52.612;13.300;2024-02-23T02:59:24;10.40;99.90
18797;DHT22;9526;52.612;13.300;2024-02-23T03:01:49;10.30;99.90
18797;DHT22;9526;52.612;13.300;2024-02-23T03:04:13;10.30;99.90
18797;DHT22;9526;52.612;13.300;2024-02-23T03:06:37;10.30;99.90
18797;DHT22;9526;52.612;13.300;2024-02-23T03:09:01;10.20;99.90
18797;DHT22;9526;52.612;13.300;2024-02-23T03:11:26;10.10;99.90
18797;DHT22;9526;52.612;13.300;2024-02-23T03:13:50;10.10;99.90
18797;DHT22;9526;52.612;13.300;2024-02-23T03:16:15;10.00;99.90
18797;DHT22;9526;52.612;13.300;2024-02-23T03:18:39;10.00;99.90
18797;DHT22;9526;52.612;13.300;2024-02-23T03:21:03;9.90;99.90
18797;DHT22;9526;52.612;13.300;2024-02-23T03:23:27;9.90;99.90
18797;DHT22;9526;52.612;13.300;2024-02-23T03:25:51;9.90;99.90
18797;DHT22;9526;52.612;13.300;2024-02-23T03:28:17;9.80;99.90
18797;DHT22;9526;52.612;13.300;2024-02-23T03:30:41;9.70;99.90
18797;DHT22;9526;52.612;13.300;2024-02-23T03:33:05;9.70;99.90
18797;DHT22;9526;52.612;13.300;2024-02-23T03:35:28;9.70;99.90
18797;DHT22;9526;52.612;13.300;2024-02-23T03:37:52;9.60;99.90
18797;DHT22;9526;52.612;13.300;2024-02-23T03:40:16;9.60;99.90
18797;DHT22;9526;52.612;13.300;2024-02-23T03:42:41;9.60;99.90
18797;DHT22;9526;52.612;13.300;2024-02-23T03:45:06;9.60;99.90
18797;DHT22;9526;52.612;13.300;2024-02-23T03:47:30;9.60;99.90
18797;DHT22;9526;52.612;13.300;2024-02-23T03:49:54;9.60;99.90
18797;DHT22;9526;52.612;13.300;2024-02-23T03:52:18;9.50;99.90
18797;DHT22;9526;52.612;13.300;2024-02-23T03:54:42;9.50;99.90
18797;DHT22;9526;52.612;13.300;2024-02-23T03:57:05;9.50;99.90
18797;DHT22;9526;52.612;13.300;2024-02-23T03:59:29;9.50;99.90
18797;DHT22;9526;52.612;13.300;2024-02-23T04:01:54;9.50;99.90
18797;DHT22;9526;52.612;13.300;2024-02-23T04:04:18;9.50;99.90
18797;DHT22;9526;52.612;13.300;2024-02-23T04:06:42;9.50;99.90
18797;DHT22;9526;52.612;13.300;2024-02-23T04:09:06;9.50;99.90
18797;DHT22;9526;52.612;13.300;2024-02-23T04:11:30;9.50;99.90
18797;DHT22;9526;52.612;13.300;2024-02-23T04:13:54;9.50;99.90
18797;DHT22;9526;52.612;13.300;2024-02-23T04:16:22;9.50;99.90
18797;DHT22;9526;52.612;13.300;2024-02-23T04:18:47;9.40;99.90
18797;DHT22;9526;52.612;13.300;2024-02-23T04:21:11;9.40;99.90
18797;DHT22;9526;52.612;13.300;2024-02-23T04:23:34;9.40;99.90
18797;DHT22;9526;52.612;13.300;2024-02-23T04:25:59;9.30;99.90
18797;DHT22;9526;52.612;13.300;2024-02-23T04:28:22;9.30;99.90
18797;DHT22;9526;52.612;13.300;2024-02-23T04:30:48;9.30;99.90
18797;DHT22;9526;52.612;13.300;2024-02-23T04:33:12;9.20;99.90
18797;DHT22;9526;52.612;13.300;2024-02-23T04:35:37;9.20;99.90
18797;DHT22;9526;52.612;13.300;2024-02-23T04:38:01;9.20;99.90
18797;DHT22;9526;52.612;13.300;2024-02-23T04:40:25;9.30;99.90
18797;DHT22;9526;52.612;13.300;2024-02-23T04:42:47;9.30;99.90
18797;DHT22;9526;52.612;13.300;2024-02-23T04:45:11;9.20;99.90
18797;DHT22;9526;52.612;13.300;2024-02-23T04:47:35;9.20;99.90
18797;DHT22;9526;52.612;13.300;2024-02-23T04:49:59;9.20;99.90
18797;DHT22;9526;52.612;13.300;2024-02-23T04:52:25;9.20;99.90
18797;DHT22;9526;52.612;13.300;2024-02-23T04:54:49;9.10;99.90
18797;DHT22;9526;52.612;13.300;2024-02-23T04:57:13;9.10;99.90
18797;DHT22;9526;52.612;13.300;2024-02-23T04:59:37;9.00;99.90
18797;DHT22;9526;52.612;13.300;2024-02-23T05:02:00;9.00;99.90
18797;DHT22;9526;52.612;13.300;2024-02-23T05:04:24;9.00;99.90
18797;DHT22;9526;52.612;13.300;2024-02-23T05:06:48;9.00;99.90
18797;DHT22;9526;52.612;13.300;2024-02-23T05:09:14;8.90;99.90
18797;DHT22;9526;52.612;13.300;2024-02-23T05:11:38;8.90;99.90
18797;DHT22;9526;52.612;13.300;2024-02-23T05:14:01;8.90;99.90
18797;DHT22;9526;52.612;13.300;2024-02-23T05:16:25;8.80;99.90
18797;DHT22;9526;52.612;13.300;2024-02-23T05:18:49;8.80;99.90
18797;DHT22;9526;52.612;13.300;2024-02-23T05:21:14;8.70;99.90
18797;DHT22;9526;52.612;13.300;2024-02-23T05:23:38;8.70;99.90
18797;DHT22;9526;52.612;13.300;2024-02-23T05:26:03;8.60;99.90
18797;DHT22;9526;52.612;13.300;2024-02-23T05:28:29;8.60;99.90
18797;DHT22;9526;52.612;13.300;2024-02-23T05:30:54;8.50;99.90
18797;DHT22;9526;52.612;13.300;2024-02-23T05:33:18;8.50;99.90
18797;DHT22;9526;52.612;13.300;2024-02-23T05:35:42;8.40;99.90
18797;DHT22;9526;52.612;13.300;2024-02-23T05:38:07;8.30;99.90
18797;DHT22;9526;52.612;13.300;2024-02-23T05:40:31;8.30;99.90
18797;DHT22;9526;52.612;13.300;2024-02-23T05:42:56;8.30;99.90
18797;DHT22;9526;52.612;13.300;2024-02-23T05:45:20;8.20;99.90
18797;DHT22;9526;52.612;13.300;2024-02-23T05:47:44;8.10;99.90
18797;DHT22;9526;52.612;13.300;2024-02-23T05:50:09;8.10;99.90
18797;DHT22;9526;52.612;13.300;2024-02-23T05:52:34;8.10;99.90
18797;DHT22;9526;52.612;13.300;2024-02-23T05:54:58;8.00;99.90
18797;DHT22;9526;52.612;13.300;2024-02-23T05:57:22;8.00;99.90
18797;DHT22;9526;52.612;13.300;2024-02-23T05:59:47;7.90;99.90
18797;DHT22;9526;52.612;13.300;2024-02-23T06:02:10;7.90;99.90
18797;DHT22;9526;52.612;13.300;2024-02-23T06:04:34;7.80;99.90
18797;DHT22;9526;52.612;13.300;2024-02-23T06:06:58;7.80;99.90
18797;DHT22;9526;52.612;13.300;2024-02-23T06:09:22;7.80;99.90
18797;DHT22;9526;52.612;13.300;2024-02-23T06:11:46;7.70;99.90
18797;DHT22;9526;52.612;13.300;2024-02-23T06:14:10;7.80;99.90
18797;DHT22;9526;52.612;13.300;2024-02-23T06:16:35;7.70;99.90
18797;DHT22;9526;52.612;13.300;2024-02-23T06:18:59;7.70;99.90
18797;DHT22;9526;52.612;13.300;2024-02-23T06:21:25;7.70;99.90
18797;DHT22;9526;52.612;13.300;2024-02-23T06:23:49;7.60;99.90
18797;DHT22;9526;52.612;13.300;2024-02-23T06:26:13;7.60;99.90
18797;DHT22;9526;52.612;13.300;2024-02-23T06:28:37;7.60;99.90
18797;DHT22;9526;52.612;13.300;2024-02-23T06:31:04;7.50;99.90
18797;DHT22;9526;52.612;13.300;2024-02-23T06:33:30;7.50;99.90
18797;DHT22;9526;52.612;13.300;2024-02-23T06:35:54;7.50;99.90
18797;DHT22;9526;52.612;13.300;2024-02-23T06:38:18;7.50;99.90
18797;DHT22;9526;52.612;13.300;2024-02-23T06:40:42;7.50;99.90
18797;DHT22;9526;52.612;13.300;2024-02-23T06:43:13;7.50;99.90
18797;DHT22;9526;52.612;13.300;2024-02-23T06:45:38;7.50;99.90
18797;DHT22;9526;52.612;13.300;2024-02-23T06:48:02;7.50;99.90
18797;DHT22;9526;52.612;13.300;2024-02-23T06:50:28;7.50;99.90
18797;DHT22;9526;52.612;13.300;2024-02-23T06:52:52;7.50;99.90
18797;DHT22;9526;52.612;13.300;2024-02-23T06:55:16;7.50;99.90
18797;DHT22;9526;52.612;13.300;2024-02-23T06:57:42;7.50;99.90
18797;DHT22;9526;52.612;13.300;2024-02-23T07:00:07;7.60;99.90
18797;DHT22;9526;52.612;13.300;2024-02-23T07:02:33;7.60;99.90
18797;DHT22;9526;52.612;13.300;2024-02-23T07:04:58;7.60;99.90
18797;DHT22;9526;52.612;13.300;2024-02-23T07:07:26;7.70;99.90
18797;DHT22;9526;52.612;13.300;2024-02-23T07:09:50;7.70;99.90
18797;DHT22;9526;52.612;13.300;2024-02-23T07:12:15;7.80;99.90
18797;DHT22;9526;52.612;13.300;2024-02-23T07:14:39;7.80;99.90
18797;DHT22;9526;52.612;13.300;2024-02-23T07:17:03;7.80;99.90
18797;DHT22;9526;52.612;13.300;2024-02-23T07:19:27;7.80;99.90
18797;DHT22;9526;52.612;13.300;2024-02-23T07:21:51;7.90;99.90
18797;DHT22;9526;52.612;13.300;2024-02-23T07:24:16;7.90;99.90
18797;DHT22;9526;52.612;13.300;2024-02-23T07:26:41;7.90;99.90
18797;DHT22;9526;52.612;13.300;2024-02-23T07:29:05;8.00;99.90
18797;DHT22;9526;52.612;13.300;2024-02-23T07:31:30;8.00;99.90
18797;DHT22;9526;52.612;13.300;2024-02-23T07:33:54;8.00;99.90
18797;DHT22;9526;52.612;13.300;2024-02-23T07:36:18;8.00;99.90
18797;DHT22;9526;52.612;13.300;2024-02-23T07:38:42;8.00;99.90
18797;DHT22;9526;52.612;13.300;2024-02-23T07:41:08;8.00;99.90
18797;DHT22;9526;52.612;13.300;2024-02-23T07:43:32;8.00;99.90
18797;DHT22;9526;52.612;13.300;2024-02-23T07:45:55;8.10;99.90
18797;DHT22;9526;52.612;13.300;2024-02-23T07:48:19;8.10;99.90
18797;DHT22;9526;52.612;13.300;2024-02-23T07:50:43;8.10;99.90
18797;DHT22;9526;52.612;13.300;2024-02-23T07:53:06;8.20;99.90
18797;DHT22;9526;52.612;13.300;2024-02-23T07:55:29;8.20;99.90
18797;DHT22;9526;52.612;13.300;2024-02-23T07:57:55;8.30;99.90
18797;DHT22;9526;52.612;13.300;2024-02-23T08:00:23;8.40;99.90
18797;DHT22;9526;52.612;13.300;2024-02-23T08:02:48;8.50;99.90
18797;DHT22;9526;52.612;13.300;2024-02-23T08:05:13;8.60;99.90
18797;DHT22;9526;52.612;13.300;2024-02-23T08:07:37;8.60;99.90
18797;DHT22;9526;52.612;13.300;2024-02-23T08:10:00;8.70;99.90
18797;DHT22;9526;52.612;13.300;2024-02-23T08:12:27;8.80;99.90
18797;DHT22;9526;52.612;13.300;2024-02-23T08:14:52;8.80;99.90
18797;DHT22;9526;52.612;13.300;2024-02-23T08:17:16;8.90;99.90
18797;DHT22;9526;52.612;13.300;2024-02-23T08:19:40;9.00;99.90
18797;DHT22;9526;52.612;13.300;2024-02-23T08:22:04;9.00;99.90
18797;DHT22;9526;52.612;13.300;2024-02-23T08:24:27;9.00;99.90
18797;DHT22;9526;52.612;13.300;2024-02-23T08:26:51;8.90;99.90
18797;DHT22;9526;52.612;13.300;2024-02-23T08:29:15;9.00;99.90
18797;DHT22;9526;52.612;13.300;2024-02-23T08:31:41;9.00;99.90
18797;DHT22;9526;52.612;13.300;2024-02-23T08:34:04;9.10;99.90
18797;DHT22;9526;52.612;13.300;2024-02-23T08:36:28;9.20;99.90
18797;DHT22;9526;52.612;13.300;2024-02-23T08:38:52;9.30;99.90
18797;DHT22;9526;52.612;13.300;2024-02-23T08:41:16;9.50;99.90
18797;DHT22;9526;52.612;13.300;2024-02-23T08:43:40;9.50;99.90
18797;DHT22;9526;52.612;13.300;2024-02-23T08:46:04;9.60;99.90
18797;DHT22;9526;52.612;13.300;2024-02-23T08:48:32;9.60;99.90
18797;DHT22;9526;52.612;13.300;2024-02-23T08:50:56;9.60;99.90
18797;DHT22;9526;52.612;13.300;2024-02-23T08:53:20;9.60;99.90
18797;DHT22;9526;52.612;13.300;2024-02-23T08:55:44;9.60;99.90
18797;DHT22;9526;52.612;13.300;2024-02-23T08:58:07;9.80;99.90
18797;DHT22;9526;52.612;13.300;2024-02-23T09:00:31;10.00;99.90
18797;DHT22;9526;52.612;13.300;2024-02-23T09:02:55;10.00;99.90
18797;DHT22;9526;52.612;13.300;2024-02-23T09:05:20;10.00;99.90
18797;DHT22;9526;52.612;13.300;2024-02-23T09:07:44;10.20;99.90
18797;DHT22;9526;52.612;13.300;2024-02-23T09:10:08;10.30;99.90
18797;DHT22;9526;52.612;13.300;2024-02-23T09:12:34;10.30;99.90
18797;DHT22;9526;52.612;13.300;2024-02-23T09:14:57;10.20;99.90
18797;DHT22;9526;52.612;13.300;2024-02-23T09:17:21;10.30;99.90
18797;DHT22;9526;52.612;13.300;2024-02-23T09:19:45;10.40;99.90
18797;DHT22;9526;52.612;13.300;2024-02-23T09:22:11;10.40;99.90
18797;DHT22;9526;52.612;13.300;2024-02-23T09:24:34;10.40;99.90
18797;DHT22;9526;52.612;13.300;2024-02-23T09:26:58;10.40;99.90
18797;DHT22;9526;52.612;13.300;2024-02-23T09:29:22;10.30;99.90
18797;DHT22;9526;52.612;13.300;2024-02-23T09:31:46;10.40;99.90
18797;DHT22;9526;52.612;13.300;2024-02-23T09:34:10;10.70;99.90
18797;DHT22;9526;52.612;13.300;2024-02-23T09:36:33;10.90;99.90
18797;DHT22;9526;52.612;13.300;2024-02-23T09:38:58;10.70;99.90
18797;DHT22;9526;52.612;13.300;2024-02-23T09:41:24;10.80;99.90
18797;DHT22;9526;52.612;13.300;2024-02-23T09:43:48;10.80;99.90
18797;DHT22;9526;52.612;13.300;2024-02-23T09:46:13;10.90;99.90
18797;DHT22;9526;52.612;13.300;2024-02-23T09:48:37;11.10;99.90
18797;DHT22;9526;52.612;13.300;2024-02-23T09:51:05;11.00;99.90
18797;DHT22;9526;52.612;13.300;2024-02-23T09:53:30;11.20;99.90
18797;DHT22;9526;52.612;13.300;2024-02-23T09:55:57;11.20;99.90
18797;DHT22;9526;52.612;13.300;2024-02-23T09:58:22;11.20;99.90
18797;DHT22;9526;52.612;13.300;2024-02-23T10:00:46;11.30;99.90
18797;DHT22;9526;52.612;13.300;2024-02-23T10:03:10;11.30;99.90
18797;DHT22;9526;52.612;13.300;2024-02-23T10:05:33;11.60;99.90
18797;DHT22;9526;52.612;13.300;2024-02-23T10:08:02;11.50;99.90
18797;DHT22;9526;52.612;13.300;2024-02-23T10:10:29;11.20;99.90
18797;DHT22;9526;52.612;13.300;2024-02-23T10:12:55;11.10;99.90
18797;DHT22;9526;52.612;13.300;2024-02-23T10:15:19;11.00;99.90
18797;DHT22;9526;52.612;13.300;2024-02-23T10:17:43;10.90;99.90
18797;DHT22;9526;52.612;13.300;2024-02-23T10:20:07;11.00;99.90
18797;DHT22;9526;52.612;13.300;2024-02-23T10:22:33;11.00;99.90
18797;DHT22;9526;52.612;13.300;2024-02-23T10:24:57;11.10;99.90
18797;DHT22;9526;52.612;13.300;2024-02-23T10:27:21;11.10;99.90
18797;DHT22;9526;52.612;13.300;2024-02-23T10:29:50;11.10;99.90
18797;DHT22;9526;52.612;13.300;2024-02-23T10:32:15;11.10;99.90
18797;DHT22;9526;52.612;13.300;2024-02-23T10:34:39;11.20;99.90
18797;DHT22;9526;52.612;13.300;2024-02-23T10:37:06;11.30;99.90
18797;DHT22;9526;52.612;13.300;2024-02-23T10:39:30;11.50;99.90
18797;DHT22;9526;52.612;13.300;2024-02-23T10:41:57;11.70;99.90
18797;DHT22;9526;52.612;13.300;2024-02-23T10:44:21;11.70;99.90
18797;DHT22;9526;52.612;13.300;2024-02-23T10:46:49;11.90;99.90
18797;DHT22;9526;52.612;13.300;2024-02-23T10:49:15;11.90;99.90
18797;DHT22;9526;52.612;13.300;2024-02-23T10:51:42;11.90;99.90
18797;DHT22;9526;52.612;13.300;2024-02-23T10:54:07;11.90;99.90
18797;DHT22;9526;52.612;13.300;2024-02-23T10:56:30;11.60;99.90
18797;DHT22;9526;52.612;13.300;2024-02-23T10:58:54;11.60;99.90
18797;DHT22;9526;52.612;13.300;2024-02-23T11:01:19;11.40;99.90
18797;DHT22;9526;52.612;13.300;2024-02-23T11:03:45;11.60;99.90
18797;DHT22;9526;52.612;13.300;2024-02-23T11:06:12;11.70;99.90
18797;DHT22;9526;52.612;13.300;2024-02-23T11:08:38;11.70;99.90
18797;DHT22;9526;52.612;13.300;2024-02-23T11:11:08;11.50;99.90
18797;DHT22;9526;52.612;13.300;2024-02-23T11:13:34;11.50;99.90
18797;DHT22;9526;52.612;13.300;2024-02-23T11:16:02;11.40;99.90
18797;DHT22;9526;52.612;13.300;2024-02-23T11:18:27;11.50;99.90
18797;DHT22;9526;52.612;13.300;2024-02-23T11:20:59;11.60;99.90
18797;DHT22;9526;52.612;13.300;2024-02-23T11:23:23;11.50;99.90
18797;DHT22;9526;52.612;13.300;2024-02-23T11:25:59;11.60;99.90
18797;DHT22;9526;52.612;13.300;2024-02-23T11:28:27;11.60;99.90
18797;DHT22;9526;52.612;13.300;2024-02-23T11:30:51;11.70;99.90
18797;DHT22;9526;52.612;13.300;2024-02-23T11:33:25;11.50;99.90
18797;DHT22;9526;52.612;13.300;2024-02-23T11:35:50;11.40;99.90
18797;DHT22;9526;52.612;13.300;2024-02-23T11:38:16;11.40;99.90
18797;DHT22;9526;52.612;13.300;2024-02-23T11:40:40;11.30;99.90
18797;DHT22;9526;52.612;13.300;2024-02-23T11:43:04;11.50;99.90
18797;DHT22;9526;52.612;13.300;2024-02-23T11:45:29;11.60;99.90
18797;DHT22;9526;52.612;13.300;2024-02-23T11:47:54;11.80;99.90
18797;DHT22;9526;52.612;13.300;2024-02-23T11:50:18;11.60;99.90
18797;DHT22;9526;52.612;13.300;2024-02-23T11:52:43;11.50;99.90
18797;DHT22;9526;52.612;13.300;2024-02-23T11:55:08;11.30;99.90
18797;DHT22;9526;52.612;13.300;2024-02-23T11:57:33;11.50;99.90
18797;DHT22;9526;52.612;13.300;2024-02-23T12:00:09;11.60;99.90
18797;DHT22;9526;52.612;13.300;2024-02-23T12:02:34;11.60;99.90
18797;DHT22;9526;52.612;13.300;2024-02-23T12:04:58;11.60;99.90
18797;DHT22;9526;52.612;13.300;2024-02-23T12:07:22;11.50;99.90
18797;DHT22;9526;52.612;13.300;2024-02-23T12:09:48;11.40;99.90
18797;DHT22;9526;52.612;13.300;2024-02-23T12:12:13;11.40;99.90
18797;DHT22;9526;52.612;13.300;2024-02-23T12:14:37;11.50;99.90
18797;DHT22;9526;52.612;13.300;2024-02-23T12:17:03;11.50;99.90
18797;DHT22;9526;52.612;13.300;2024-02-23T12:19:28;11.60;99.90
18797;DHT22;9526;52.612;13.300;2024-02-23T12:21:52;11.30;99.90
18797;DHT22;9526;52.612;13.300;2024-02-23T12:24:17;11.40;99.90
18797;DHT22;9526;52.612;13.300;2024-02-23T12:26:41;11.30;99.90
18797;DHT22;9526;52.612;13.300;2024-02-23T12:29:06;11.40;99.90
18797;DHT22;9526;52.612;13.300;2024-02-23T12:31:32;11.40;99.90
18797;DHT22;9526;52.612;13.300;2024-02-23T12:33:57;11.30;99.90
18797;DHT22;9526;52.612;13.300;2024-02-23T12:36:23;11.20;99.90
18797;DHT22;9526;52.612;13.300;2024-02-23T12:38:47;11.10;99.90
18797;DHT22;9526;52.612;13.300;2024-02-23T12:41:10;11.20;99.90
18797;DHT22;9526;52.612;13.300;2024-02-23T12:43:34;11.20;99.90
18797;DHT22;9526;52.612;13.300;2024-02-23T12:46:03;11.10;99.90
18797;DHT22;9526;52.612;13.300;2024-02-23T12:48:28;11.10;99.90
18797;DHT22;9526;52.612;13.300;2024-02-23T12:50:52;11.10;99.90
18797;DHT22;9526;52.612;13.300;2024-02-23T12:53:31;10.90;99.90
18797;DHT22;9526;52.612;13.300;2024-02-23T12:55:57;10.80;99.90
18797;DHT22;9526;52.612;13.300;2024-02-23T12:58:20;10.80;99.90
18797;DHT22;9526;52.612;13.300;2024-02-23T13:00:44;10.80;99.90
18797;DHT22;9526;52.612;13.300;2024-02-23T13:03:09;10.80;99.90
18797;DHT22;9526;52.612;13.300;2024-02-23T13:05:33;10.90;99.90
18797;DHT22;9526;52.612;13.300;2024-02-23T13:07:57;11.00;99.90
18797;DHT22;9526;52.612;13.300;2024-02-23T13:10:21;11.00;99.90
18797;DHT22;9526;52.612;13.300;2024-02-23T13:12:44;10.90;99.90
18797;DHT22;9526;52.612;13.300;2024-02-23T13:15:08;11.00;99.90
18797;DHT22;9526;52.612;13.300;2024-02-23T13:17:32;11.00;99.90
18797;DHT22;9526;52.612;13.300;2024-02-23T13:19:57;11.00;99.90
18797;DHT22;9526;52.612;13.300;2024-02-23T13:22:32;11.10;99.90
18797;DHT22;9526;52.612;13.300;2024-02-23T13:24:56;11.00;99.90
18797;DHT22;9526;52.612;13.300;2024-02-23T13:27:20;11.00;99.90
18797;DHT22;9526;52.612;13.300;2024-02-23T13:29:44;11.00;99.90
18797;DHT22;9526;52.612;13.300;2024-02-23T13:32:08;11.00;99.90
18797;DHT22;9526;52.612;13.300;2024-02-23T13:34:34;11.00;99.90
18797;DHT22;9526;52.612;13.300;2024-02-23T13:36:59;10.80;99.90
18797;DHT22;9526;52.612;13.300;2024-02-23T13:39:24;10.80;99.90
18797;DHT22;9526;52.612;13.300;2024-02-23T13:41:48;10.80;99.90
18797;DHT22;9526;52.612;13.300;2024-02-23T13:44:11;10.80;99.90
18797;DHT22;9526;52.612;13.300;2024-02-23T13:46:38;10.90;99.90
18797;DHT22;9526;52.612;13.300;2024-02-23T13:49:03;10.90;99.90
18797;DHT22;9526;52.612;13.300;2024-02-23T13:51:29;11.00;99.90
18797;DHT22;9526;52.612;13.300;2024-02-23T13:53:55;11.00;99.90
18797;DHT22;9526;52.612;13.300;2024-02-23T13:56:19;11.00;99.90
18797;DHT22;9526;52.612;13.300;2024-02-23T13:58:44;11.00;99.90
18797;DHT22;9526;52.612;13.300;2024-02-23T14:01:10;11.00;99.90
18797;DHT22;9526;52.612;13.300;2024-02-23T14:03:34;11.10;99.90
18797;DHT22;9526;52.612;13.300;2024-02-23T14:05:58;11.00;99.90
18797;DHT22;9526;52.612;13.300;2024-02-23T14:08:23;10.90;99.90
18797;DHT22;9526;52.612;13.300;2024-02-23T14:10:48;10.80;99.90
18797;DHT22;9526;52.612;13.300;2024-02-23T14:13:12;10.70;99.90
18797;DHT22;9526;52.612;13.300;2024-02-23T14:15:36;10.60;99.90
18797;DHT22;9526;52.612;13.300;2024-02-23T14:18:00;10.70;99.90
18797;DHT22;9526;52.612;13.300;2024-02-23T14:20:23;10.70;99.90
18797;DHT22;9526;52.612;13.300;2024-02-23T14:22:47;10.60;99.90
18797;DHT22;9526;52.612;13.300;2024-02-23T14:25:12;10.50;99.90
18797;DHT22;9526;52.612;13.300;2024-02-23T14:27:37;10.50;99.90
18797;DHT22;9526;52.612;13.300;2024-02-23T14:30:01;10.60;99.90
18797;DHT22;9526;52.612;13.300;2024-02-23T14:32:25;10.60;99.90
18797;DHT22;9526;52.612;13.300;2024-02-23T14:34:49;10.50;99.90
18797;DHT22;9526;52.612;13.300;2024-02-23T14:37:12;10.50;99.90
18797;DHT22;9526;52.612;13.300;2024-02-23T14:39:37;10.40;99.90
18797;DHT22;9526;52.612;13.300;2024-02-23T14:42:00;10.40;99.90
18797;DHT22;9526;52.612;13.300;2024-02-23T14:44:26;10.30;99.90
18797;DHT22;9526;52.612;13.300;2024-02-23T14:46:50;10.20;99.90
18797;DHT22;9526;52.612;13.300;2024-02-23T14:49:14;10.20;99.90
18797;DHT22;9526;52.612;13.300;2024-02-23T14:51:38;10.20;99.90
18797;DHT22;9526;52.612;13.300;2024-02-23T14:54:05;10.10;99.90
18797;DHT22;9526;52.612;13.300;2024-02-23T14:56:28;10.10;99.90
18797;DHT22;9526;52.612;13.300;2024-02-23T14:58:52;10.10;99.90
18797;DHT22;9526;52.612;13.300;2024-02-23T15:01:17;10.00;99.90
18797;DHT22;9526;52.612;13.300;2024-02-23T15:03:41;10.00;99.90
18797;DHT22;9526;52.612;13.300;2024-02-23T15:06:05;10.00;99.90
18797;DHT22;9526;52.612;13.300;2024-02-23T15:08:30;10.00;99.90
18797;DHT22;9526;52.612;13.300;2024-02-23T15:10:54;9.90;99.90
18797;DHT22;9526;52.612;13.300;2024-02-23T15:13:18;9.90;99.90
18797;DHT22;9526;52.612;13.300;2024-02-23T15:15:42;9.90;99.90
18797;DHT22;9526;52.612;13.300;2024-02-23T15:18:07;9.90;99.90
18797;DHT22;9526;52.612;13.300;2024-02-23T15:20:31;9.90;99.90